Time;durP1;ratioP1;P1;durP2;ratioP2;P2;SDS_P1;SDS_P2;PMS_P1;PMS_P2;Temp;Humidity;BMP_temperature;BMP_pressure;BME280_temperature;BME280_humidity;BME280_pressure;Samples;Min_cycle;Max_cycle;Signal;HPM_P1;HPM_P2
2022/06/01 00:00:27;;;;;;;;;;;;;;;;;;1046005;28;3979;-54
2022/06/01 00:01:06;;;;;;;;;;;;;;;;;;1040542;28;4085;-53
2022/06/01 00:01:37;;;;;;;;;;;;;;;;;;1041319;28;3870;-50
2022/06/01 00:02:08;;;;;;;;;;;;;;;;;;1040197;28;4073;-55
2022/06/01 00:02:38;;;;;;;;;;;;;;;;;;1041981;28;2810;-53
2022/06/01 00:03:09;;;;;;;;;;;;;;;;;;1044353;28;4085;-55
2022/06/01 00:03:40;;;;;;;;;;;;;;;;;;1044633;28;3109;-54
2022/06/01 00:04:11;;;;;;;;;;;;;;;;;;1045858;28;4204;-51
2022/06/01 00:04:41;;;;;;;;;;;;;;;;;;1044734;28;2617;-52
2022/06/01 00:05:12;;;;;;;;;;;;;;;;;;1043808;28;3771;-54
2022/06/01 00:05:42;;;;;;;;;;;;;;;;;;1044873;28;4263;-53
2022/06/01 00:06:13;;;;;;;;;;;;;;;;;;1045013;28;3797;-53
2022/06/01 00:06:43;;;;;;;;;;;;;;;;;;1046351;28;1642;-52
2022/06/01 00:07:13;;;;;;;;;;;;;;;;;;1044600;28;6292;-53
2022/06/01 00:07:43;;;;;;;;;;;;;;;;;;1045102;28;3267;-52
2022/06/01 00:08:14;;;;;;;;;;;;;;;;;;1040204;28;4078;-51
2022/06/01 00:08:44;;;;;;;;;;;;;;;;;;1041416;28;3753;-52
2022/06/01 00:09:14;;;;;;;;;;;;;;;;;;1039936;28;4122;-54
2022/06/01 00:09:44;;;;;;;;;;;;;;;;;;1041075;28;3462;-53
2022/06/01 00:10:29;;;;;;;;;;;;;;;;;;1044426;28;4058;-52
2022/06/01 00:11:06;;;;;;;;;;;;;;;;;;1043204;28;3865;-51
2022/06/01 00:11:36;;;;;;;;;;;;;;;;;;1045854;28;1662;-53
2022/06/01 00:12:09;;;;;;;;;;;;;;;;;;1040161;28;4051;-52
2022/06/01 00:12:39;;;;;;;;;;;;;;;;;;1040976;28;2735;-54
2022/06/01 00:13:09;;;;;;;;;;;;;;;;;;1040867;28;4042;-52
2022/06/01 00:13:40;;;;;;;;;;;;;;;;;;1042359;28;1696;-53
2022/06/01 00:14:11;;;;;;;;;;;;;;;;;;1037963;28;4152;-52
2022/06/01 00:14:42;;;;;;;;;;;;;;;;;;1037652;28;3692;-52
2022/06/01 00:15:13;;;;;;;;;;;;;;;;;;1038854;28;4063;-52
2022/06/01 00:15:43;;;;;;;;;;;;;;;;;;1042717;28;1590;-50
2022/06/01 00:16:14;;;;;;;;;;;;;;;;;;1045544;28;4116;-52
2022/06/01 00:16:45;;;;;;;;;;;;;;;;;;1045607;28;1659;-51
2022/06/01 00:17:16;;;;;;;;;;;;;;;;;;1044599;28;3977;-55
2022/06/01 00:17:46;;;;;;;;;;;;;;;;;;1044050;28;4164;-54
2022/06/01 00:18:16;;;;;;;;;;;;;;;;;;1045407;28;3846;-54
2022/06/01 00:18:47;;;;;;;;;;;;;;;;;;1045402;28;1644;-52
2022/06/01 00:19:17;;;;;;;;;;;;;;;;;;1045758;28;4410;-53
2022/06/01 00:19:47;;;;;;;;;;;;;;;;;;1043547;28;3863;-54
2022/06/01 00:20:18;;;;;;;;;;;;;;;;;;1044982;28;4453;-54
2022/06/01 00:20:48;;;;;;;;;;;;;;;;;;1046160;28;1585;-53
2022/06/01 00:21:19;;;;;;;;;;;;;;;;;;1043970;28;4369;-53
2022/06/01 00:22:38;;;;;;;;;;;;;;;;;;1045929;28;3865;-51
2022/06/01 00:23:09;;;;;;;;;;;;;;;;;;1044605;28;4022;-52
2022/06/01 00:23:39;;;;;;;;;;;;;;;;;;1044659;28;3049;-54
2022/06/01 00:24:09;;;;;;;;;;;;;;;;;;1040125;28;4100;-52
2022/06/01 00:24:40;;;;;;;;;;;;;;;;;;1041120;28;3116;-51
2022/06/01 00:25:11;;;;;;;;;;;;;;;;;;1040415;28;4159;-54
2022/06/01 00:25:42;;;;;;;;;;;;;;;;;;1040639;28;4495;-53
2022/06/01 00:26:12;;;;;;;;;;;;;;;;;;1043921;28;3799;-53
2022/06/01 00:26:42;;;;;;;;;;;;;;;;;;1045519;28;3355;-51
2022/06/01 00:27:13;;;;;;;;;;;;;;;;;;1044574;28;3905;-53
2022/06/01 00:27:44;;;;;;;;;;;;;;;;;;1044393;28;3567;-52
2022/06/01 00:28:14;;;;;;;;;;;;;;;;;;1044298;28;3882;-55
2022/06/01 00:28:44;;;;;;;;;;;;;;;;;;1045588;28;1637;-54
2022/06/01 00:29:14;;;;;;;;;;;;;;;;;;1042892;28;3779;-51
2022/06/01 00:29:45;;;;;;;;;;;;;;;;;;1045433;28;3739;-53
2022/06/01 00:30:16;;;;;;;;;;;;;;;;;;1045191;28;3842;-55
2022/06/01 00:30:47;;;;;;;;;;;;;;;;;;1044963;28;3672;-53
2022/06/01 00:31:17;;;;;;;;;;;;;;;;;;1044671;28;3862;-54
2022/06/01 00:31:47;;;;;;;;;;;;;;;;;;1044864;28;3775;-53
2022/06/01 00:32:17;;;;;;;;;;;;;;;;;;1043282;28;4023;-55
2022/06/01 00:32:48;;;;;;;;;;;;;;;;;;1046430;28;1591;-53
2022/06/01 00:33:19;;;;;;;;;;;;;;;;;;1044106;28;3889;-55
2022/06/01 00:33:49;;;;;;;;;;;;;;;;;;1043936;28;3354;-54
2022/06/01 00:34:19;;;;;;;;;;;;;;;;;;1045666;28;3973;-53
2022/06/01 00:34:49;;;;;;;;;;;;;;;;;;1044857;28;3468;-54
2022/06/01 00:35:21;;;;;;;;;;;;;;;;;;1044440;28;4303;-52
2022/06/01 00:35:51;;;;;;;;;;;;;;;;;;1043681;28;4058;-53
2022/06/01 00:36:22;;;;;;;;;;;;;;;;;;1046160;28;1701;-54
2022/06/01 00:36:52;;;;;;;;;;;;;;;;;;1044849;28;3998;-54
2022/06/01 00:37:22;;;;;;;;;;;;;;;;;;1043234;28;3640;-52
2022/06/01 00:37:52;;;;;;;;;;;;;;;;;;1038997;28;3992;-54
2022/06/01 00:38:23;;;;;;;;;;;;;;;;;;1040950;28;3523;-54
2022/06/01 00:38:53;;;;;;;;;;;;;;;;;;1040332;28;3802;-56
2022/06/01 00:39:23;;;;;;;;;;;;;;;;;;1041317;28;2032;-54
2022/06/01 00:40:00;;;;;;;;;;;;;;;;;;1044953;28;4101;-54
2022/06/01 00:40:31;;;;;;;;;;;;;;;;;;1044817;28;3276;-52
2022/06/01 00:41:01;;;;;;;;;;;;;;;;;;1044655;28;4097;-52
2022/06/01 00:41:31;;;;;;;;;;;;;;;;;;1045173;28;3277;-54
2022/06/01 00:42:09;;;;;;;;;;;;;;;;;;1044523;28;3907;-53
2022/06/01 00:42:40;;;;;;;;;;;;;;;;;;1043029;28;3197;-52
2022/06/01 00:43:22;;;;;;;;;;;;;;;;;;1043094;28;4084;-54
2022/06/01 00:43:52;;;;;;;;;;;;;;;;;;1042805;28;3936;-55
2022/06/01 00:44:23;;;;;;;;;;;;;;;;;;1044385;28;3148;-52
2022/06/01 00:44:53;;;;;;;;;;;;;;;;;;1044887;28;3904;-54
2022/06/01 00:45:24;;;;;;;;;;;;;;;;;;1044630;28;3379;-54
2022/06/01 00:45:54;;;;;;;;;;;;;;;;;;1040626;28;5489;-53
2022/06/01 00:46:25;;;;;;;;;;;;;;;;;;1044292;28;4019;-51
2022/06/01 00:46:55;;;;;;;;;;;;;;;;;;1042814;28;4084;-53
2022/06/01 00:47:26;;;;;;;;;;;;;;;;;;1043064;28;3784;-53
2022/06/01 00:47:56;;;;;;;;;;;;;;;;;;1045235;28;3904;-54
2022/06/01 00:48:27;;;;;;;;;;;;;;;;;;1045933;28;2712;-51
2022/06/01 00:49:00;;;;;;;;;;;;;;;;;;1045031;28;3955;-55
2022/06/01 00:49:30;;;;;;;;;;;;;;;;;;1045474;28;3398;-53
2022/06/01 00:50:19;;;;;;;;;;;;;;;;;;1040086;28;4417;-53
2022/06/01 00:50:56;;;;;;;;;;;;;;;;;;1039043;28;4085;-53
2022/06/01 00:51:27;;;;;;;;;;;;;;;;;;1040448;28;3832;-53
2022/06/01 00:51:57;;;;;;;;;;;;;;;;;;1042867;28;3896;-53
2022/06/01 00:52:35;;;;;;;;;;;;;;;;;;1045720;28;3048;-54
2022/06/01 00:53:18;;;;;;;;;;;;;;;;;;1039244;28;3942;-52
2022/06/01 00:53:49;;;;;;;;;;;;;;;;;;1036215;28;3464;-54
2022/06/01 00:54:21;;;;;;;;;;;;;;;;;;1035174;28;4002;-53
2022/06/01 00:54:52;;;;;;;;;;;;;;;;;;1038130;28;3907;-53
2022/06/01 00:55:31;;;;;;;;;;;;;;;;;;1039674;28;3714;-54
2022/06/01 00:56:05;;;;;;;;;;;;;;;;;;1045836;28;3775;-55
2022/06/01 00:56:41;;;;;;;;;;;;;;;;;;1045295;28;3288;-53
2022/06/01 00:57:13;;;;;;;;;;;;;;;;;;1043108;28;3780;-53
2022/06/01 00:57:46;;;;;;;;;;;;;;;;;;1041503;28;3338;-54
2022/06/01 00:58:24;;;;;;;;;;;;;;;;;;1040499;28;3831;-54
2022/06/01 00:58:55;;;;;;;;;;;;;;;;;;1033231;28;3912;-53
2022/06/01 00:59:29;;;;;;;;;;;;;;;;;;1029058;28;3033;-54
2022/06/01 01:00:03;;;;;;;;;;;;;;;;;;1033004;28;3941;-52
2022/06/01 01:00:34;;;;;;;;;;;;;;;;;;1036154;28;1723;-49
2022/06/01 01:01:08;;;;;;;;;;;;;;;;;;1042064;28;3988;-53
2022/06/01 01:01:38;;;;;;;;;;;;;;;;;;1045171;28;3868;-55
2022/06/01 01:02:08;;;;;;;;;;;;;;;;;;1044581;28;4121;-53
2022/06/01 01:02:39;;;;;;;;;;;;;;;;;;1041019;28;1949;-53
2022/06/01 01:03:10;;;;;;;;;;;;;;;;;;1040983;28;3816;-50
2022/06/01 01:03:42;;;;;;;;;;;;;;;;;;1036473;28;2876;-52
2022/06/01 01:04:13;;;;;;;;;;;;;;;;;;1040104;28;4049;-53
2022/06/01 01:04:43;;;;;;;;;;;;;;;;;;1036738;28;3293;-54
2022/06/01 01:05:15;;;;;;;;;;;;;;;;;;1033732;28;4044;-53
2022/06/01 01:05:46;;;;;;;;;;;;;;;;;;1037544;28;1768;-53
2022/06/01 01:06:24;;;;;;;;;;;;;;;;;;1036454;28;4231;-53
2022/06/01 01:06:54;;;;;;;;;;;;;;;;;;1036389;28;3832;-52
2022/06/01 01:07:26;;;;;;;;;;;;;;;;;;1038179;28;1412;-53
2022/06/01 01:07:57;;;;;;;;;;;;;;;;;;1041027;28;3909;-52
2022/06/01 01:08:27;;;;;;;;;;;;;;;;;;1039648;28;3272;-54
2022/06/01 01:08:59;;;;;;;;;;;;;;;;;;1041281;28;3940;-53
2022/06/01 01:09:29;;;;;;;;;;;;;;;;;;1043246;28;3849;-51
2022/06/01 01:09:59;;;;;;;;;;;;;;;;;;1043918;28;4066;-53
2022/06/01 01:10:43;;;;;;;;;;;;;;;;;;1043834;28;3333;-52
2022/06/01 01:11:21;;;;;;;;;;;;;;;;;;1043684;28;3800;-53
2022/06/01 01:11:54;;;;;;;;;;;;;;;;;;1045639;28;4078;-52
2022/06/01 01:12:24;;;;;;;;;;;;;;;;;;1045629;28;3421;-51
2022/06/01 01:13:04;;;;;;;;;;;;;;;;;;1040594;28;3835;-55
2022/06/01 01:13:34;;;;;;;;;;;;;;;;;;1040743;28;3288;-54
2022/06/01 01:14:06;;;;;;;;;;;;;;;;;;1039856;28;4071;-55
2022/06/01 01:14:38;;;;;;;;;;;;;;;;;;1042662;28;3327;-51
2022/06/01 01:15:09;;;;;;;;;;;;;;;;;;1044769;28;4088;-54
2022/06/01 01:15:43;;;;;;;;;;;;;;;;;;1040987;28;3348;-53
2022/06/01 01:16:15;;;;;;;;;;;;;;;;;;1040370;28;3909;-52
2022/06/01 01:16:46;;;;;;;;;;;;;;;;;;1041713;28;1292;-50
2022/06/01 01:17:16;;;;;;;;;;;;;;;;;;1040349;28;3948;-54
2022/06/01 01:17:48;;;;;;;;;;;;;;;;;;1045584;28;3243;-54
2022/06/01 01:18:20;;;;;;;;;;;;;;;;;;1043225;28;4008;-52
2022/06/01 01:18:51;;;;;;;;;;;;;;;;;;1045209;28;4052;-53
2022/06/01 01:19:27;;;;;;;;;;;;;;;;;;1043650;28;3744;-53
2022/06/01 01:19:58;;;;;;;;;;;;;;;;;;1044534;28;4137;-54
2022/06/01 01:20:28;;;;;;;;;;;;;;;;;;1040917;28;3284;-54
2022/06/01 01:21:04;;;;;;;;;;;;;;;;;;1040064;28;4409;-53
2022/06/01 01:21:40;;;;;;;;;;;;;;;;;;1039913;28;3404;-54
2022/06/01 01:22:22;;;;;;;;;;;;;;;;;;1042475;28;4214;-54
2022/06/01 01:22:58;;;;;;;;;;;;;;;;;;1045596;28;4035;-53
2022/06/01 01:23:48;;;;;;;;;;;;;;;;;;1045025;28;1808;-51
2022/06/01 01:24:27;;;;;;;;;;;;;;;;;;1043468;28;3734;-51
2022/06/01 01:25:18;;;;;;;;;;;;;;;;;;1040301;28;4077;-51
2022/06/01 01:25:49;;;;;;;;;;;;;;;;;;1039999;28;3814;-53
2022/06/01 01:26:21;;;;;;;;;;;;;;;;;;1038023;28;4003;-54
2022/06/01 01:26:51;;;;;;;;;;;;;;;;;;1042777;28;4062;-51
2022/06/01 01:27:22;;;;;;;;;;;;;;;;;;1038158;28;3782;-53
2022/06/01 01:27:54;;;;;;;;;;;;;;;;;;1040328;28;3879;-54
2022/06/01 01:28:24;;;;;;;;;;;;;;;;;;1040077;28;3409;-54
2022/06/01 01:28:54;;;;;;;;;;;;;;;;;;1040037;28;3940;-54
2022/06/01 01:29:32;;;;;;;;;;;;;;;;;;1044119;28;3446;-52
2022/06/01 01:30:22;;;;;;;;;;;;;;;;;;1045578;28;3907;-53
2022/06/01 01:31:07;;;;;;;;;;;;;;;;;;1045979;28;4054;-53
2022/06/01 01:31:39;;;;;;;;;;;;;;;;;;1044095;28;3614;-50
2022/06/01 01:32:11;;;;;;;;;;;;;;;;;;1044690;28;3896;-52
2022/06/01 01:32:42;;;;;;;;;;;;;;;;;;1045241;28;3384;-54
2022/06/01 01:33:18;;;;;;;;;;;;;;;;;;1044599;28;4027;-53
2022/06/01 01:33:49;;;;;;;;;;;;;;;;;;1044526;28;3520;-51
2022/06/01 01:34:20;;;;;;;;;;;;;;;;;;1045066;28;3884;-53
2022/06/01 01:34:50;;;;;;;;;;;;;;;;;;1045646;28;1690;-53
2022/06/01 01:35:20;;;;;;;;;;;;;;;;;;1044644;28;12762;-53
2022/06/01 01:35:53;;;;;;;;;;;;;;;;;;1043896;28;4085;-53
2022/06/01 01:36:31;;;;;;;;;;;;;;;;;;1044884;28;4164;-52
2022/06/01 01:37:04;;;;;;;;;;;;;;;;;;1044945;28;3896;-51
2022/06/01 01:37:35;;;;;;;;;;;;;;;;;;1045716;28;3417;-52
2022/06/01 01:38:09;;;;;;;;;;;;;;;;;;1044407;28;3875;-53
2022/06/01 01:38:49;;;;;;;;;;;;;;;;;;1044134;28;3219;-52
2022/06/01 01:39:19;;;;;;;;;;;;;;;;;;1040438;28;4376;-54
2022/06/01 01:39:51;;;;;;;;;;;;;;;;;;1041155;28;3569;-53
2022/06/01 01:40:25;;;;;;;;;;;;;;;;;;1038733;28;3661;-54
2022/06/01 01:41:02;;;;;;;;;;;;;;;;;;1041296;28;3920;-51
2022/06/01 01:41:40;;;;;;;;;;;;;;;;;;1045708;28;3312;-51
2022/06/01 01:42:10;;;;;;;;;;;;;;;;;;1043323;28;4119;-53
2022/06/01 01:42:41;;;;;;;;;;;;;;;;;;1045574;28;3467;-53
2022/06/01 01:43:11;;;;;;;;;;;;;;;;;;1044138;28;3797;-52
2022/06/01 01:43:57;;;;;;;;;;;;;;;;;;1045299;28;3438;-54
2022/06/01 01:44:34;;;;;;;;;;;;;;;;;;1044392;28;3739;-52
2022/06/01 01:45:10;;;;;;;;;;;;;;;;;;1043617;28;5275;-53
2022/06/01 01:45:41;;;;;;;;;;;;;;;;;;1045263;28;3511;-52
2022/06/01 01:46:11;;;;;;;;;;;;;;;;;;1043555;28;3956;-54
2022/06/01 01:46:47;;;;;;;;;;;;;;;;;;1045065;28;1729;-55
2022/06/01 01:47:17;;;;;;;;;;;;;;;;;;1043836;28;3871;-52
2022/06/01 01:47:47;;;;;;;;;;;;;;;;;;1044560;28;3051;-52
2022/06/01 01:48:17;;;;;;;;;;;;;;;;;;1044294;28;3846;-52
2022/06/01 01:48:48;;;;;;;;;;;;;;;;;;1045103;28;3035;-50
2022/06/01 01:49:21;;;;;;;;;;;;;;;;;;1044121;28;3904;-53
2022/06/01 01:49:51;;;;;;;;;;;;;;;;;;1044854;28;3869;-53
2022/06/01 01:50:28;;;;;;;;;;;;;;;;;;1043256;28;3941;-50
2022/06/01 01:50:58;;;;;;;;;;;;;;;;;;1045090;28;4122;-52
2022/06/01 01:51:29;;;;;;;;;;;;;;;;;;1044553;28;3906;-53
2022/06/01 01:52:02;;;;;;;;;;;;;;;;;;1043938;28;3829;-51
2022/06/01 01:52:33;;;;;;;;;;;;;;;;;;1045460;28;2749;-54
2022/06/01 01:53:03;;;;;;;;;;;;;;;;;;1045030;28;3928;-51
2022/06/01 01:53:34;;;;;;;;;;;;;;;;;;1044744;28;3317;-53
2022/06/01 01:54:08;;;;;;;;;;;;;;;;;;1044857;28;3931;-51
2022/06/01 01:54:59;;;;;;;;;;;;;;;;;;1045864;28;3767;-52
2022/06/01 01:55:30;;;;;;;;;;;;;;;;;;1045650;28;3933;-51
2022/06/01 01:56:05;;;;;;;;;;;;;;;;;;1043889;28;4067;-55
2022/06/01 01:56:48;;;;;;;;;;;;;;;;;;1044920;28;2371;-54
2022/06/01 01:57:22;;;;;;;;;;;;;;;;;;1043963;28;3853;-55
2022/06/01 01:57:59;;;;;;;;;;;;;;;;;;1044408;28;4088;-51
2022/06/01 01:58:37;;;;;;;;;;;;;;;;;;1044765;28;2861;-52
2022/06/01 01:59:16;;;;;;;;;;;;;;;;;;1040644;28;3984;-55
2022/06/01 01:59:49;;;;;;;;;;;;;;;;;;1040708;28;3463;-53
2022/06/01 02:00:30;;;;;;;;;;;;;;;;;;1035650;28;4028;-51
2022/06/01 02:01:03;;;;;;;;;;;;;;;;;;1040573;28;3935;-52
2022/06/01 02:01:54;;;;;;;;;;;;;;;;;;1041371;28;2034;-52
2022/06/01 02:02:24;;;;;;;;;;;;;;;;;;1042837;28;4036;-52
2022/06/01 02:02:54;;;;;;;;;;;;;;;;;;1040854;28;4145;-51
2022/06/01 02:03:27;;;;;;;;;;;;;;;;;;1041606;28;1987;-49
2022/06/01 02:04:03;;;;;;;;;;;;;;;;;;1040410;28;3800;-54
2022/06/01 02:06:29;;;;;;;;;;;;;;;;;;1045315;28;3754;-52
2022/06/01 02:07:03;;;;;;;;;;;;;;;;;;1040683;28;3976;-52
2022/06/01 02:07:39;;;;;;;;;;;;;;;;;;1039476;28;3505;-54
2022/06/01 02:08:26;;;;;;;;;;;;;;;;;;1037837;28;4060;-54
2022/06/01 02:08:58;;;;;;;;;;;;;;;;;;1040168;28;5324;-51
2022/06/01 02:12:40;;;;;;;;;;;;;;;;;;1040480;28;2370;-52
2022/06/01 02:13:08;;;;;;;;;;;;;;;;;;1043942;28;4005;-51
2022/06/01 02:13:39;;;;;;;;;;;;;;;;;;1045177;28;2852;-52
2022/06/01 02:14:14;;;;;;;;;;;;;;;;;;1044924;28;3892;-52
2022/06/01 02:14:51;;;;;;;;;;;;;;;;;;1045480;28;3234;-53
2022/06/01 02:15:25;;;;;;;;;;;;;;;;;;1043497;28;3857;-55
2022/06/01 02:15:57;;;;;;;;;;;;;;;;;;1044972;28;4044;-54
2022/06/01 02:16:30;;;;;;;;;;;;;;;;;;1044884;28;3252;-51
2022/06/01 02:17:05;;;;;;;;;;;;;;;;;;1046091;28;4118;-54
2022/06/01 02:17:40;;;;;;;;;;;;;;;;;;1044459;28;3151;-52
2022/06/01 02:18:12;;;;;;;;;;;;;;;;;;1045004;28;4232;-51
2022/06/01 02:18:45;;;;;;;;;;;;;;;;;;1045580;28;3464;-50
2022/06/01 02:19:20;;;;;;;;;;;;;;;;;;1044526;28;3862;-53
2022/06/01 02:19:55;;;;;;;;;;;;;;;;;;1043765;28;3950;-53
2022/06/01 02:20:52;;;;;;;;;;;;;;;;;;1044090;28;2741;-54
2022/06/01 02:21:25;;;;;;;;;;;;;;;;;;1039956;28;4039;-54
2022/06/01 02:21:55;;;;;;;;;;;;;;;;;;1044686;28;3991;-53
2022/06/01 02:22:26;;;;;;;;;;;;;;;;;;1044390;28;3124;-52
2022/06/01 02:22:56;;;;;;;;;;;;;;;;;;1045242;28;4070;-52
2022/06/01 02:23:31;;;;;;;;;;;;;;;;;;1043540;28;3209;-52
2022/06/01 02:24:01;;;;;;;;;;;;;;;;;;1043069;28;3835;-53
2022/06/01 02:24:32;;;;;;;;;;;;;;;;;;1044987;28;3975;-55
2022/06/01 02:25:02;;;;;;;;;;;;;;;;;;1044568;28;3957;-51
2022/06/01 02:25:33;;;;;;;;;;;;;;;;;;1045398;28;3315;-52
2022/06/01 02:26:04;;;;;;;;;;;;;;;;;;1046092;28;3885;-52
2022/06/01 02:26:35;;;;;;;;;;;;;;;;;;1040949;28;2984;-54
2022/06/01 02:27:05;;;;;;;;;;;;;;;;;;1040552;28;3993;-54
2022/06/01 02:27:37;;;;;;;;;;;;;;;;;;1040657;28;3728;-54
2022/06/01 02:28:07;;;;;;;;;;;;;;;;;;1040838;28;3972;-52
2022/06/01 02:28:38;;;;;;;;;;;;;;;;;;1042195;28;3279;-52
2022/06/01 02:29:12;;;;;;;;;;;;;;;;;;1044815;28;3802;-53
2022/06/01 02:29:45;;;;;;;;;;;;;;;;;;1046272;28;2947;-53
2022/06/01 02:30:19;;;;;;;;;;;;;;;;;;1044043;28;4118;-53
2022/06/01 02:30:49;;;;;;;;;;;;;;;;;;1046279;28;3505;-54
2022/06/01 02:31:21;;;;;;;;;;;;;;;;;;1045510;28;3990;-55
2022/06/01 02:31:52;;;;;;;;;;;;;;;;;;1045450;28;3902;-51
2022/06/01 02:32:25;;;;;;;;;;;;;;;;;;1045282;28;3324;-54
2022/06/01 02:32:57;;;;;;;;;;;;;;;;;;1046448;28;3890;-51
2022/06/01 02:33:31;;;;;;;;;;;;;;;;;;1045428;28;2900;-51
2022/06/01 02:34:03;;;;;;;;;;;;;;;;;;1044386;28;4198;-54
2022/06/01 02:34:35;;;;;;;;;;;;;;;;;;1046071;28;3667;-54
2022/06/01 02:35:07;;;;;;;;;;;;;;;;;;1046327;28;4088;-54
2022/06/01 02:35:39;;;;;;;;;;;;;;;;;;1045458;28;1593;-54
2022/06/01 02:36:14;;;;;;;;;;;;;;;;;;1045686;28;4055;-52
2022/06/01 02:36:45;;;;;;;;;;;;;;;;;;1045313;28;3719;-53
2022/06/01 02:37:16;;;;;;;;;;;;;;;;;;1042467;28;3956;-51
2022/06/01 02:37:48;;;;;;;;;;;;;;;;;;1043318;28;1723;-53
2022/06/01 02:38:29;;;;;;;;;;;;;;;;;;1043806;28;4061;-51
2022/06/01 02:39:01;;;;;;;;;;;;;;;;;;1041796;28;4066;-53
2022/06/01 02:39:39;;;;;;;;;;;;;;;;;;1045815;28;4313;-55
2022/06/01 02:40:13;;;;;;;;;;;;;;;;;;1044783;28;3882;-53
2022/06/01 02:40:43;;;;;;;;;;;;;;;;;;1045606;28;2519;-50
2022/06/01 02:42:25;;;;;;;;;;;;;;;;;;1045735;28;4410;-50
2022/06/01 02:42:55;;;;;;;;;;;;;;;;;;1045801;28;4396;-52
2022/06/01 02:43:26;;;;;;;;;;;;;;;;;;1045706;28;2993;-51
2022/06/01 02:43:57;;;;;;;;;;;;;;;;;;1042480;28;4108;-53
2022/06/01 02:44:27;;;;;;;;;;;;;;;;;;1046312;28;3448;-52
2022/06/01 02:45:05;;;;;;;;;;;;;;;;;;1041280;28;3829;-51
2022/06/01 02:45:36;;;;;;;;;;;;;;;;;;1045773;28;3238;-53
2022/06/01 02:46:07;;;;;;;;;;;;;;;;;;1045283;28;4074;-51
2022/06/01 02:46:37;;;;;;;;;;;;;;;;;;1044868;28;4556;-54
2022/06/01 02:47:07;;;;;;;;;;;;;;;;;;1041076;28;4095;-52
2022/06/01 02:47:39;;;;;;;;;;;;;;;;;;1041039;28;3222;-54
2022/06/01 02:48:10;;;;;;;;;;;;;;;;;;1040708;28;4073;-54
2022/06/01 02:48:43;;;;;;;;;;;;;;;;;;1038377;28;3638;-50
2022/06/01 02:49:13;;;;;;;;;;;;;;;;;;1040974;28;4059;-51
2022/06/01 02:49:43;;;;;;;;;;;;;;;;;;1038155;28;3341;-54
2022/06/01 02:50:18;;;;;;;;;;;;;;;;;;1036493;28;3891;-53
2022/06/01 02:50:48;;;;;;;;;;;;;;;;;;1034391;28;4006;-54
2022/06/01 02:51:19;;;;;;;;;;;;;;;;;;1036977;28;3991;-53
2022/06/01 02:51:51;;;;;;;;;;;;;;;;;;1040565;28;3684;-53
2022/06/01 02:52:21;;;;;;;;;;;;;;;;;;1041045;28;3740;-53
2022/06/01 02:52:52;;;;;;;;;;;;;;;;;;1046059;28;3889;-53
2022/06/01 02:53:22;;;;;;;;;;;;;;;;;;1045642;28;3597;-52
2022/06/01 02:53:52;;;;;;;;;;;;;;;;;;1043599;28;4301;-52
2022/06/01 02:54:23;;;;;;;;;;;;;;;;;;1039835;28;3565;-52
2022/06/01 02:54:53;;;;;;;;;;;;;;;;;;1040069;28;3896;-54
2022/06/01 02:55:24;;;;;;;;;;;;;;;;;;1036373;28;3805;-51
2022/06/01 02:55:57;;;;;;;;;;;;;;;;;;1037569;28;3891;-52
2022/06/01 02:56:27;;;;;;;;;;;;;;;;;;1040584;28;3287;-49
2022/06/01 02:56:57;;;;;;;;;;;;;;;;;;1040693;28;3911;-52
2022/06/01 02:57:27;;;;;;;;;;;;;;;;;;1041284;28;3349;-54
2022/06/01 02:57:58;;;;;;;;;;;;;;;;;;1040911;28;4196;-53
2022/06/01 02:58:28;;;;;;;;;;;;;;;;;;1041298;28;3237;-53
2022/06/01 02:58:59;;;;;;;;;;;;;;;;;;1039828;28;3995;-54
2022/06/01 02:59:29;;;;;;;;;;;;;;;;;;1044655;28;3388;-53
2022/06/01 02:59:59;;;;;;;;;;;;;;;;;;1043673;28;4248;-53
2022/06/01 03:00:40;;;;;;;;;;;;;;;;;;1046075;28;2603;-50
2022/06/01 03:01:11;;;;;;;;;;;;;;;;;;1045209;28;7182;-54
2022/06/01 03:01:43;;;;;;;;;;;;;;;;;;1044924;28;4289;-51
2022/06/01 03:02:13;;;;;;;;;;;;;;;;;;1043985;28;3810;-52
2022/06/01 03:02:45;;;;;;;;;;;;;;;;;;1044942;28;3756;-54
2022/06/01 03:03:22;;;;;;;;;;;;;;;;;;1039930;28;4115;-51
2022/06/01 03:03:53;;;;;;;;;;;;;;;;;;1041038;28;3896;-53
2022/06/01 03:04:23;;;;;;;;;;;;;;;;;;1041142;28;3228;-50
2022/06/01 03:04:53;;;;;;;;;;;;;;;;;;1042557;28;4085;-51
2022/06/01 03:05:25;;;;;;;;;;;;;;;;;;1044452;28;3837;-53
2022/06/01 03:05:55;;;;;;;;;;;;;;;;;;1043636;28;6674;-49
2022/06/01 03:06:33;;;;;;;;;;;;;;;;;;1046514;28;3843;-54
2022/06/01 03:07:03;;;;;;;;;;;;;;;;;;1046004;28;3923;-55
2022/06/01 03:07:34;;;;;;;;;;;;;;;;;;1044452;28;3485;-55
2022/06/01 03:08:04;;;;;;;;;;;;;;;;;;1042983;28;3921;-53
2022/06/01 03:08:34;;;;;;;;;;;;;;;;;;1044992;28;3781;-54
2022/06/01 03:09:05;;;;;;;;;;;;;;;;;;1045252;28;3878;-53
2022/06/01 03:09:36;;;;;;;;;;;;;;;;;;1044836;28;3436;-50
2022/06/01 03:10:06;;;;;;;;;;;;;;;;;;1043615;28;4089;-51
2022/06/01 03:10:37;;;;;;;;;;;;;;;;;;1043913;28;4064;-50
2022/06/01 03:11:14;;;;;;;;;;;;;;;;;;1045237;28;3766;-53
2022/06/01 03:11:44;;;;;;;;;;;;;;;;;;1044279;28;3399;-53
2022/06/01 03:12:14;;;;;;;;;;;;;;;;;;1044072;28;3944;-53
2022/06/01 03:12:45;;;;;;;;;;;;;;;;;;1045192;28;3606;-53
2022/06/01 03:13:16;;;;;;;;;;;;;;;;;;1045571;28;4034;-53
2022/06/01 03:13:47;;;;;;;;;;;;;;;;;;1041613;28;2691;-51
2022/06/01 03:14:17;;;;;;;;;;;;;;;;;;1038706;28;3921;-53
2022/06/01 03:14:47;;;;;;;;;;;;;;;;;;1039651;28;3827;-53
2022/06/01 03:15:19;;;;;;;;;;;;;;;;;;1040500;28;4329;-54
2022/06/01 03:15:50;;;;;;;;;;;;;;;;;;1046418;28;3160;-52
2022/06/01 03:16:20;;;;;;;;;;;;;;;;;;1044520;28;3657;-53
2022/06/01 03:16:51;;;;;;;;;;;;;;;;;;1046247;28;4431;-53
2022/06/01 03:17:21;;;;;;;;;;;;;;;;;;1045050;28;2920;-53
2022/06/01 03:17:53;;;;;;;;;;;;;;;;;;1045991;28;3954;-54
2022/06/01 03:18:23;;;;;;;;;;;;;;;;;;1045103;28;3053;-51
2022/06/01 03:18:54;;;;;;;;;;;;;;;;;;1044490;28;3890;-51
2022/06/01 03:19:24;;;;;;;;;;;;;;;;;;1045283;28;3045;-54
2022/06/01 03:19:55;;;;;;;;;;;;;;;;;;1043861;28;4274;-52
2022/06/01 03:20:27;;;;;;;;;;;;;;;;;;1044719;28;3261;-52
2022/06/01 03:20:57;;;;;;;;;;;;;;;;;;1043713;28;4503;-53
2022/06/01 03:21:28;;;;;;;;;;;;;;;;;;1042817;28;3540;-51
2022/06/01 03:21:58;;;;;;;;;;;;;;;;;;1045330;28;3914;-55
2022/06/01 03:22:28;;;;;;;;;;;;;;;;;;1044819;28;3363;-53
2022/06/01 03:22:59;;;;;;;;;;;;;;;;;;1045273;28;4032;-52
2022/06/01 03:23:30;;;;;;;;;;;;;;;;;;1044315;28;3858;-53
2022/06/01 03:24:01;;;;;;;;;;;;;;;;;;1044646;28;4029;-52
2022/06/01 03:24:32;;;;;;;;;;;;;;;;;;1041413;28;3805;-54
2022/06/01 03:25:03;;;;;;;;;;;;;;;;;;1041235;28;4074;-52
2022/06/01 03:25:36;;;;;;;;;;;;;;;;;;1041096;28;3134;-52
2022/06/01 03:26:06;;;;;;;;;;;;;;;;;;1041366;28;4213;-54
2022/06/01 03:26:36;;;;;;;;;;;;;;;;;;1044407;28;3308;-53
2022/06/01 03:27:07;;;;;;;;;;;;;;;;;;1044806;28;4636;-52
2022/06/01 03:27:38;;;;;;;;;;;;;;;;;;1044138;28;3460;-55
2022/06/01 03:28:09;;;;;;;;;;;;;;;;;;1044984;28;4069;-53
2022/06/01 03:28:39;;;;;;;;;;;;;;;;;;1036211;28;3679;-52
2022/06/01 03:29:10;;;;;;;;;;;;;;;;;;1040155;28;3943;-53
2022/06/01 03:29:40;;;;;;;;;;;;;;;;;;1040307;28;3948;-53
2022/06/01 03:30:12;;;;;;;;;;;;;;;;;;1043886;28;4051;-52
2022/06/01 03:30:43;;;;;;;;;;;;;;;;;;1046119;28;3495;-52
2022/06/01 03:31:13;;;;;;;;;;;;;;;;;;1041212;28;4079;-53
2022/06/01 03:31:44;;;;;;;;;;;;;;;;;;1041344;28;3566;-52
2022/06/01 03:32:14;;;;;;;;;;;;;;;;;;1040153;28;3936;-51
2022/06/01 03:32:45;;;;;;;;;;;;;;;;;;1040222;28;3698;-50
2022/06/01 03:33:15;;;;;;;;;;;;;;;;;;1043078;28;4140;-53
2022/06/01 03:33:45;;;;;;;;;;;;;;;;;;1046349;28;1672;-50
2022/06/01 03:34:16;;;;;;;;;;;;;;;;;;1044037;28;3796;-54
2022/06/01 03:34:46;;;;;;;;;;;;;;;;;;1045419;28;3982;-55
2022/06/01 03:35:18;;;;;;;;;;;;;;;;;;1044717;28;3774;-54
2022/06/01 03:35:55;;;;;;;;;;;;;;;;;;1044595;28;4003;-52
2022/06/01 03:36:25;;;;;;;;;;;;;;;;;;1045343;28;3767;-54
2022/06/01 03:36:56;;;;;;;;;;;;;;;;;;1044986;28;3940;-53
2022/06/01 03:37:27;;;;;;;;;;;;;;;;;;1044190;28;4079;-53
2022/06/01 03:37:58;;;;;;;;;;;;;;;;;;1045699;28;3945;-52
2022/06/01 03:38:28;;;;;;;;;;;;;;;;;;1044471;28;3578;-51
2022/06/01 03:38:58;;;;;;;;;;;;;;;;;;1043047;28;4056;-51
2022/06/01 03:39:29;;;;;;;;;;;;;;;;;;1045986;28;3555;-51
2022/06/01 03:39:59;;;;;;;;;;;;;;;;;;1045108;28;3934;-54
2022/06/01 03:40:31;;;;;;;;;;;;;;;;;;1045173;28;3325;-50
2022/06/01 03:41:01;;;;;;;;;;;;;;;;;;1040025;28;4007;-53
2022/06/01 03:41:31;;;;;;;;;;;;;;;;;;1040433;28;3407;-51
2022/06/01 03:42:02;;;;;;;;;;;;;;;;;;1040860;28;4545;-54
2022/06/01 03:42:33;;;;;;;;;;;;;;;;;;1041085;28;3933;-52
2022/06/01 03:43:03;;;;;;;;;;;;;;;;;;1044661;28;4024;-52
2022/06/01 03:46:00;;;;;;;;;;;;;;;;;;1044577;28;3891;-53
2022/06/01 03:46:33;;;;;;;;;;;;;;;;;;1044710;28;3332;-54
2022/06/01 03:47:10;;;;;;;;;;;;;;;;;;1045136;28;3888;-51
2022/06/01 03:47:40;;;;;;;;;;;;;;;;;;1044378;28;3356;-52
2022/06/01 03:48:11;;;;;;;;;;;;;;;;;;1045378;28;4245;-52
2022/06/01 03:48:41;;;;;;;;;;;;;;;;;;1044432;28;3462;-53
2022/06/01 03:49:11;;;;;;;;;;;;;;;;;;1043991;28;3888;-51
2022/06/01 03:49:43;;;;;;;;;;;;;;;;;;1044743;28;3388;-54
2022/06/01 03:50:13;;;;;;;;;;;;;;;;;;1044973;28;3793;-52
2022/06/01 03:50:44;;;;;;;;;;;;;;;;;;1045718;28;2063;-54
2022/06/01 03:51:14;;;;;;;;;;;;;;;;;;1044769;28;3833;-53
2022/06/01 03:51:44;;;;;;;;;;;;;;;;;;1044375;28;3695;-53
2022/06/01 03:52:15;;;;;;;;;;;;;;;;;;1044381;28;4056;-52
2022/06/01 03:52:45;;;;;;;;;;;;;;;;;;1045058;28;3597;-54
2022/06/01 03:53:15;;;;;;;;;;;;;;;;;;1045118;28;3862;-53
2022/06/01 03:53:46;;;;;;;;;;;;;;;;;;1045318;28;3474;-53
2022/06/01 03:54:16;;;;;;;;;;;;;;;;;;1044176;28;4033;-53